Terminal Aerodrome Forecast
Issued by NWS

Home | Current Version | Previous Version | Text Only | Print | Product List | Glossary On
Versions: 1 2 3 4 5 6 7 8 9 10 11 12 13 14 15 16 17 18 19 20 21 22 23 24 25 26 27 28 29 30 31 32 33 34 35 36 37 38 39 40 41
606
FTUS41 KOKX 231740
TAFTEB
TAF
KTEB 231740Z 2318/2418 06024G38KT 6SM -DZ BR SCT014 OVC025
      TEMPO 2318/2322 4SM -RA BKN014
     FM232200 06025G45KT 3SM RA BR OVC010
     FM240200 05028G49KT 2SM RA BR OVC008
     FM240500 03020G36KT 2SM +RA BR OVC006
     FM240900 01015G23KT 3SM RA BR OVC006
     FM241400 36015G20KT 3SM -RA BR OVC008=

USA.gov is the U.S. government's official web portal to all federal, state and local government web resources and services.